createdAt,value
2018-10-11T00:00:17.000Z,100017
2018-10-11T00:02:17.000Z,100014
2018-10-11T00:03:17.000Z,100006
2018-10-11T00:05:17.000Z,100008
2018-10-11T00:06:17.000Z,100005
2018-10-11T00:07:18.000Z,100000
2018-10-11T00:09:18.000Z,100012
2018-10-11T00:11:18.000Z,100003
2018-10-11T00:13:18.000Z,99995
2018-10-11T00:14:18.000Z,99994
2018-10-11T00:16:18.000Z,99996
2018-10-11T00:18:18.000Z,100003
2018-10-11T00:20:18.000Z,100010
2018-10-11T00:22:18.000Z,100006
2018-10-11T00:23:18.000Z,100009
2018-10-11T00:25:18.000Z,100017
2018-10-11T00:27:18.000Z,100007
2018-10-11T00:28:18.000Z,100001
2018-10-11T00:30:02.000Z,100011
2018-10-11T00:31:18.000Z,100011
2018-10-11T00:33:18.000Z,100012
2018-10-11T00:35:02.000Z,100022
2018-10-11T00:36:18.000Z,100021
2018-10-11T00:38:18.000Z,100019
2018-10-11T00:40:18.000Z,100018
2018-10-11T00:41:18.000Z,100018
2018-10-11T00:43:18.000Z,100019
2018-10-11T00:45:18.000Z,100014
2018-10-11T00:46:18.000Z,100015
2018-10-11T00:48:18.000Z,100021
2018-10-11T00:49:18.000Z,100014
2018-10-11T00:50:18.000Z,100009
2018-10-11T00:52:18.000Z,100008
2018-10-11T00:54:02.000Z,100011
2018-10-11T00:55:18.000Z,100010
2018-10-11T00:56:18.000Z,100010
2018-10-11T00:58:18.000Z,100007
2018-10-11T00:59:18.000Z,100005
2018-10-11T01:01:18.000Z,99999
2018-10-11T01:02:47.000Z,99997
2018-10-11T01:04:18.000Z,99999
2018-10-11T01:06:18.000Z,100015
2018-10-11T01:08:18.000Z,100013
2018-10-11T01:10:18.000Z,100006
2018-10-11T01:12:02.000Z,100000
2018-10-11T01:13:17.000Z,99996
2018-10-11T01:14:17.000Z,99998
2018-10-11T01:16:17.000Z,99998
2018-10-11T01:18:17.000Z,99992
2018-10-11T01:20:17.000Z,99986
2018-10-11T01:22:17.000Z,99987
2018-10-11T01:24:17.000Z,99990
2018-10-11T01:25:17.000Z,99993
2018-10-11T01:27:17.000Z,99994
2018-10-11T01:29:17.000Z,99983
2018-10-11T01:30:17.000Z,99982
2018-10-11T01:32:17.000Z,99984
2018-10-11T01:34:17.000Z,99981
2018-10-11T01:36:17.000Z,99982
2018-10-11T01:38:17.000Z,99977
2018-10-11T01:40:17.000Z,99980
2018-10-11T01:42:17.000Z,99980
2018-10-11T01:43:17.000Z,99982
2018-10-11T01:45:17.000Z,99965
2018-10-11T01:47:17.000Z,99965
2018-10-11T01:48:17.000Z,99966
2018-10-11T01:50:02.000Z,99965
2018-10-11T01:51:17.000Z,99960
2018-10-11T01:53:17.000Z,99961
2018-10-11T01:55:02.000Z,99955
2018-10-11T01:56:17.000Z,99960
2018-10-11T01:57:17.000Z,99960
2018-10-11T01:59:17.000Z,99959
2018-10-11T02:00:17.000Z,99954
2018-10-11T02:02:17.000Z,99954
2018-10-11T02:03:17.000Z,99955
2018-10-11T02:04:17.000Z,99955
2018-10-11T02:05:17.000Z,99951
2018-10-11T02:07:17.000Z,99953
2018-10-11T02:08:17.000Z,99943
2018-10-11T02:10:17.000Z,99945
2018-10-11T02:12:17.000Z,99943
2018-10-11T02:14:17.000Z,99944
2018-10-11T02:15:17.000Z,99941
2018-10-11T02:17:17.000Z,99942
2018-10-11T02:19:17.000Z,99943
2018-10-11T02:21:17.000Z,99943
2018-10-11T02:23:17.000Z,99933
2018-10-11T02:25:17.000Z,99936
2018-10-11T02:27:17.000Z,99931
2018-10-11T02:29:17.000Z,99930
2018-10-11T02:31:02.000Z,99932
2018-10-11T02:32:17.000Z,99924
2018-10-11T02:33:17.000Z,99924
2018-10-11T02:35:17.000Z,99932
2018-10-11T02:36:17.000Z,99936
2018-10-11T02:38:17.000Z,99929
2018-10-11T02:39:17.000Z,99925
2018-10-11T02:41:17.000Z,99918
2018-10-11T02:43:17.000Z,99914
2018-10-11T02:44:17.000Z,99916
2018-10-11T02:45:17.000Z,99919
2018-10-11T02:47:17.000Z,99917
2018-10-11T02:49:17.000Z,99928
2018-10-11T02:51:17.000Z,99925
2018-10-11T02:53:17.000Z,99924
2018-10-11T02:54:17.000Z,99929
2018-10-11T02:56:02.000Z,99928
2018-10-11T02:57:17.000Z,99935
2018-10-11T02:58:17.000Z,99937
2018-10-11T03:00:17.000Z,99931
2018-10-11T03:02:17.000Z,99930
2018-10-11T03:04:17.000Z,99928
2018-10-11T03:06:17.000Z,99923
2018-10-11T03:07:17.000Z,99923
2018-10-11T03:09:17.000Z,99922
2018-10-11T03:11:17.000Z,99922
2018-10-11T03:13:17.000Z,99919
2018-10-11T03:15:17.000Z,99913
2018-10-11T03:16:17.000Z,99920
2018-10-11T03:18:17.000Z,99915
2018-10-11T03:19:17.000Z,99916
2018-10-11T03:20:17.000Z,99920
2018-10-11T03:21:17.000Z,99919
2018-10-11T03:23:17.000Z,99919
2018-10-11T03:24:17.000Z,99923
2018-10-11T03:26:17.000Z,99922
2018-10-11T03:28:17.000Z,99917
2018-10-11T03:30:17.000Z,99923
2018-10-11T03:31:17.000Z,99919
2018-10-11T03:33:17.000Z,99915
2018-10-11T03:35:02.000Z,99923
2018-10-11T03:36:17.000Z,99911
2018-10-11T03:38:17.000Z,99917
2018-10-11T03:40:17.000Z,99910
2018-10-11T03:42:02.000Z,99914
2018-10-11T03:43:17.000Z,99913
2018-10-11T03:45:17.000Z,99917
2018-10-11T03:47:17.000Z,99917
2018-10-11T03:49:17.000Z,99916
2018-10-11T03:51:17.000Z,99914
2018-10-11T03:53:17.000Z,99904
2018-10-11T03:55:17.000Z,99901
2018-10-11T03:57:17.000Z,99906
2018-10-11T03:59:17.000Z,99910
2018-10-11T04:01:02.000Z,99910
2018-10-11T04:02:17.000Z,99909
2018-10-11T04:03:17.000Z,99912
2018-10-11T04:05:17.000Z,99913
2018-10-11T04:06:17.000Z,99909
2018-10-11T04:08:17.000Z,99908
2018-10-11T04:09:17.000Z,99911
2018-10-11T04:10:17.000Z,99913
2018-10-11T04:12:17.000Z,99913
2018-10-11T04:14:17.000Z,99916
2018-10-11T04:16:02.000Z,99916
2018-10-11T04:17:17.000Z,99912
2018-10-11T04:18:17.000Z,99919
2018-10-11T04:20:02.000Z,99921
2018-10-11T04:21:17.000Z,99919
2018-10-11T04:23:17.000Z,99915
2018-10-11T04:25:17.000Z,99914
2018-10-11T04:27:17.000Z,99910
2018-10-11T04:29:17.000Z,99912
2018-10-11T04:30:17.000Z,99917
2018-10-11T04:32:17.000Z,99916
2018-10-11T04:34:17.000Z,99916
2018-10-11T04:36:17.000Z,99920
2018-10-11T04:38:17.000Z,99916
2018-10-11T04:39:17.000Z,99914
2018-10-11T04:40:17.000Z,99915
2018-10-11T04:41:47.000Z,99920
2018-10-11T04:43:17.000Z,99923
2018-10-11T04:45:17.000Z,99923
2018-10-11T04:47:17.000Z,99928
2018-10-11T04:48:17.000Z,99925
2018-10-11T04:50:17.000Z,99929
2018-10-11T04:51:17.000Z,99930
2018-10-11T04:53:02.000Z,99920
2018-10-11T04:54:17.000Z,99920
2018-10-11T04:56:17.000Z,99920
2018-10-11T04:58:17.000Z,99923
2018-10-11T05:00:17.000Z,99924
2018-10-11T05:02:17.000Z,99925
2018-10-11T05:04:17.000Z,99927
2018-10-11T05:06:17.000Z,99935
2018-10-11T05:07:17.000Z,99930
2018-10-11T05:08:17.000Z,99927
2018-10-11T05:10:17.000Z,99933
2018-10-11T05:12:17.000Z,99941
2018-10-11T05:14:17.000Z,99944
2018-10-11T05:16:17.000Z,99940
2018-10-11T05:17:17.000Z,99936
2018-10-11T05:19:17.000Z,99942
2018-10-11T05:21:17.000Z,99938
2018-10-11T05:22:17.000Z,99934
2018-10-11T05:24:17.000Z,99934
2018-10-11T05:26:18.000Z,99933
2018-10-11T05:28:18.000Z,99935
2018-10-11T05:29:18.000Z,99940
2018-10-11T05:30:18.000Z,99936
2018-10-11T05:32:18.000Z,99931
2018-10-11T05:34:18.000Z,99944
2018-10-11T05:35:18.000Z,99941
2018-10-11T05:37:18.000Z,99941
2018-10-11T05:38:18.000Z,99941
2018-10-11T05:40:18.000Z,99945
2018-10-11T05:42:18.000Z,99943
2018-10-11T05:44:18.000Z,99946
2018-10-11T05:45:18.000Z,99951
2018-10-11T05:47:18.000Z,99949
2018-10-11T05:49:18.000Z,99946
2018-10-11T05:51:18.000Z,99949
2018-10-11T05:53:18.000Z,99951
2018-10-11T05:55:18.000Z,99950
2018-10-11T05:57:18.000Z,99950
2018-10-11T05:58:18.000Z,99951
2018-10-11T05:59:18.000Z,99951
2018-10-11T06:01:18.000Z,99956
2018-10-11T06:03:02.000Z,99952
2018-10-11T06:04:18.000Z,99951
2018-10-11T06:06:18.000Z,99951
2018-10-11T06:08:18.000Z,99956
2018-10-11T06:10:18.000Z,99956
2018-10-11T06:11:18.000Z,99959
2018-10-11T06:14:18.000Z,99955
2018-10-11T06:16:18.000Z,99964
2018-10-11T06:18:03.000Z,99967
2018-10-11T06:19:18.000Z,99965
2018-10-11T06:21:18.000Z,99968
2018-10-11T06:23:18.000Z,99974
2018-10-11T06:25:03.000Z,99970
2018-10-11T06:26:18.000Z,99966
2018-10-11T06:28:18.000Z,99971
2018-10-11T06:30:18.000Z,99964
2018-10-11T06:32:18.000Z,99970
2018-10-11T06:34:18.000Z,99978
2018-10-11T06:35:18.000Z,99973
2018-10-11T06:37:18.000Z,99978
2018-10-11T06:38:18.000Z,99979
2018-10-11T06:40:18.000Z,99986
2018-10-11T06:42:18.000Z,99994
2018-10-11T06:44:18.000Z,100001
2018-10-11T06:45:18.000Z,99995
2018-10-11T06:46:18.000Z,99999
2018-10-11T06:47:48.000Z,100004
2018-10-11T06:49:18.000Z,100011
2018-10-11T06:51:18.000Z,100011
2018-10-11T06:52:18.000Z,100009
2018-10-11T06:54:03.000Z,100012
2018-10-11T06:55:18.000Z,100012
2018-10-11T06:57:03.000Z,100004
2018-10-11T06:58:18.000Z,100001
2018-10-11T07:00:18.000Z,100006
2018-10-11T07:01:18.000Z,99999
2018-10-11T07:03:18.000Z,100003
2018-10-11T07:05:18.000Z,99999
2018-10-11T07:07:18.000Z,99998
2018-10-11T07:09:18.000Z,100005
2018-10-11T07:11:18.000Z,100002
2018-10-11T07:13:18.000Z,100012
2018-10-11T07:14:18.000Z,100010
2018-10-11T07:16:18.000Z,100011
2018-10-11T07:18:03.000Z,100013
2018-10-11T07:19:18.000Z,100011
2018-10-11T07:20:18.000Z,100015
2018-10-11T07:22:03.000Z,100022
2018-10-11T07:23:18.000Z,100030
2018-10-11T07:25:18.000Z,100033
2018-10-11T07:26:18.000Z,100040
2018-10-11T07:28:18.000Z,100044
2018-10-11T07:30:18.000Z,100043
2018-10-11T07:32:18.000Z,100036
2018-10-11T07:34:18.000Z,100040
2018-10-11T07:36:18.000Z,100036
2018-10-11T07:38:18.000Z,100039
2018-10-11T07:40:18.000Z,100043
2018-10-11T07:41:18.000Z,100037
2018-10-11T07:43:18.000Z,100037
2018-10-11T07:45:18.000Z,100052
2018-10-11T07:46:18.000Z,100046
2018-10-11T07:48:18.000Z,100054
2018-10-11T07:50:18.000Z,100051
2018-10-11T07:51:18.000Z,100066
2018-10-11T07:52:18.000Z,100065
2018-10-11T07:54:03.000Z,100059
2018-10-11T07:55:18.000Z,100056
2018-10-11T07:56:18.000Z,100060
2018-10-11T07:58:18.000Z,100056
2018-10-11T08:00:18.000Z,100059
2018-10-11T08:01:19.000Z,100065
2018-10-11T08:02:48.000Z,100071
2018-10-11T08:04:04.000Z,100065
2018-10-11T08:05:18.000Z,100066
2018-10-11T08:07:18.000Z,100071
2018-10-11T08:09:18.000Z,100070
2018-10-11T08:10:18.000Z,100074
2018-10-11T08:12:18.000Z,100072
2018-10-11T08:13:48.000Z,100069
2018-10-11T08:15:18.000Z,100071
2018-10-11T08:17:18.000Z,100066
2018-10-11T08:18:18.000Z,100063
2018-10-11T08:19:19.000Z,100067
2018-10-11T08:21:18.000Z,100068
2018-10-11T08:23:18.000Z,100069
2018-10-11T08:25:18.000Z,100070
2018-10-11T08:27:18.000Z,100080
2018-10-11T08:28:19.000Z,100083
2018-10-11T08:30:18.000Z,100087
2018-10-11T08:32:03.000Z,100080
2018-10-11T08:33:18.000Z,100079
2018-10-11T08:34:18.000Z,100083
2018-10-11T08:36:18.000Z,100078
2018-10-11T08:38:18.000Z,100077
2018-10-11T08:39:47.000Z,100084
2018-10-11T08:41:18.000Z,100083
2018-10-11T08:43:18.000Z,100083
2018-10-11T08:45:18.000Z,100076
2018-10-11T08:47:18.000Z,100076
2018-10-11T08:49:18.000Z,100081
2018-10-11T08:50:18.000Z,100077
2018-10-11T08:52:18.000Z,100078
2018-10-11T08:54:18.000Z,100082
2018-10-11T08:56:03.000Z,100089
2018-10-11T08:57:03.000Z,100090
2018-10-11T08:58:18.000Z,100085
2018-10-11T09:00:18.000Z,100088
2018-10-11T09:02:18.000Z,100086
2018-10-11T09:04:18.000Z,100097
2018-10-11T09:06:18.000Z,100100
2018-10-11T09:07:18.000Z,100097
2018-10-11T09:09:18.000Z,100096
2018-10-11T09:10:47.000Z,100095
2018-10-11T09:12:18.000Z,100099
2018-10-11T09:14:03.000Z,100097
2018-10-11T09:15:18.000Z,100098
2018-10-11T09:17:03.000Z,100093
2018-10-11T09:18:18.000Z,100094
2018-10-11T09:19:18.000Z,100092
2018-10-11T09:21:18.000Z,100091
2018-10-11T09:23:18.000Z,100090
2018-10-11T09:25:18.000Z,100087
2018-10-11T09:27:18.000Z,100083
2018-10-11T09:29:18.000Z,100084
2018-10-11T09:31:18.000Z,100089
2018-10-11T09:33:18.000Z,100084
2018-10-11T09:34:18.000Z,100077
2018-10-11T09:36:18.000Z,100079
2018-10-11T09:37:18.000Z,100083
2018-10-11T09:39:18.000Z,100081
2018-10-11T09:40:18.000Z,100088
2018-10-11T09:42:18.000Z,100087
2018-10-11T09:44:18.000Z,100087
2018-10-11T09:46:18.000Z,100083
2018-10-11T09:47:18.000Z,100079
2018-10-11T09:48:18.000Z,100083
2018-10-11T09:50:18.000Z,100082
2018-10-11T09:52:03.000Z,100089
2018-10-11T09:53:18.000Z,100092
2018-10-11T09:55:18.000Z,100091
2018-10-11T09:57:18.000Z,100091
2018-10-11T09:59:18.000Z,100090
2018-10-11T10:01:03.000Z,100091
2018-10-11T10:02:18.000Z,100090
2018-10-11T10:03:18.000Z,100096
2018-10-11T10:04:18.000Z,100090
2018-10-11T10:06:03.000Z,100071
2018-10-11T10:07:18.000Z,100098
2018-10-11T10:09:18.000Z,100094
2018-10-11T10:11:03.000Z,100092
2018-10-11T10:12:18.000Z,100097
2018-10-11T10:14:18.000Z,100090
2018-10-11T10:16:18.000Z,100091
2018-10-11T10:18:18.000Z,100092
2018-10-11T10:19:18.000Z,100092
2018-10-11T10:20:48.000Z,100092
2018-10-11T10:22:18.000Z,100095
2018-10-11T10:24:03.000Z,100091
2018-10-11T10:25:18.000Z,100089
2018-10-11T10:27:18.000Z,100087
2018-10-11T10:29:18.000Z,100084
2018-10-11T10:30:18.000Z,100085
2018-10-11T10:32:18.000Z,100080
2018-10-11T10:33:18.000Z,100076
2018-10-11T10:35:18.000Z,100073
2018-10-11T10:37:18.000Z,100079
2018-10-11T10:39:18.000Z,100077
2018-10-11T10:41:18.000Z,100072
2018-10-11T10:42:18.000Z,100074
2018-10-11T10:44:18.000Z,100070
2018-10-11T10:45:18.000Z,100070
2018-10-11T10:46:47.000Z,100071
2018-10-11T10:48:18.000Z,100069
2018-10-11T10:49:18.000Z,100074
2018-10-11T10:51:18.000Z,100077
2018-10-11T10:53:18.000Z,100073
2018-10-11T10:55:18.000Z,100077
2018-10-11T10:56:18.000Z,100079
2018-10-11T10:58:18.000Z,100083
2018-10-11T11:08:19.000Z,100060
2018-10-11T11:10:04.000Z,100058
2018-10-11T11:12:04.000Z,100060
2018-10-11T11:14:04.000Z,100051
2018-10-11T11:16:04.000Z,100055
2018-10-11T11:18:04.000Z,100033
2018-10-11T11:19:49.000Z,100032
2018-10-11T11:21:04.000Z,100033
2018-10-11T11:23:04.000Z,100026
2018-10-11T11:24:04.000Z,100026
2018-10-11T11:26:04.000Z,100015
2018-10-11T11:27:49.000Z,100014
2018-10-11T11:29:04.000Z,100021
2018-10-11T11:30:04.000Z,100019
2018-10-11T11:32:04.000Z,100019
2018-10-11T11:34:04.000Z,100022
2018-10-11T11:35:04.000Z,100016
2018-10-11T11:37:04.000Z,100020
2018-10-11T11:39:04.000Z,100019
2018-10-11T11:41:04.000Z,100017
2018-10-11T11:42:04.000Z,100013
2018-10-11T11:43:04.000Z,100011
2018-10-11T11:45:04.000Z,100013
2018-10-11T11:46:04.000Z,100013
2018-10-11T11:48:05.000Z,100012
2018-10-11T11:49:05.000Z,100012
2018-10-11T11:51:05.000Z,100007
2018-10-11T11:52:05.000Z,100014
2018-10-11T11:54:05.000Z,100005
2018-10-11T11:55:50.000Z,100014
2018-10-11T11:57:05.000Z,100014
2018-10-11T11:58:05.000Z,100017
2018-10-11T12:00:05.000Z,100022
2018-10-11T12:02:05.000Z,100023
2018-10-11T12:04:05.000Z,100016
2018-10-11T12:05:05.000Z,100016
2018-10-11T12:06:05.000Z,100015
2018-10-11T12:08:05.000Z,100015
2018-10-11T12:10:05.000Z,100023
2018-10-11T12:11:50.000Z,100021
2018-10-11T12:13:05.000Z,100025
2018-10-11T12:14:05.000Z,100017
2018-10-11T12:15:05.000Z,100019
2018-10-11T12:17:05.000Z,100017
2018-10-11T12:18:50.000Z,100017
2018-10-11T12:20:05.000Z,100017
2018-10-11T12:22:05.000Z,100017
2018-10-11T12:23:05.000Z,100020
2018-10-11T12:24:05.000Z,100018
2018-10-11T12:26:05.000Z,100019
2018-10-11T12:27:05.000Z,100020
2018-10-11T12:28:50.000Z,100015
2018-10-11T12:30:05.000Z,100024
2018-10-11T12:31:05.000Z,100021
2018-10-11T12:33:05.000Z,100017
2018-10-11T12:35:05.000Z,100023
2018-10-11T12:36:05.000Z,100025
2018-10-11T12:37:50.000Z,100022
2018-10-11T12:39:05.000Z,100025
2018-10-11T12:41:05.000Z,100018
2018-10-11T12:43:05.000Z,100017
2018-10-11T12:44:05.000Z,100020
2018-10-11T12:46:05.000Z,100020
2018-10-11T12:48:05.000Z,100019
2018-10-11T12:49:05.000Z,100016
2018-10-11T12:50:49.000Z,100018
2018-10-11T12:52:04.000Z,100017
2018-10-11T12:53:04.000Z,100021
2018-10-11T12:55:04.000Z,100015
2018-10-11T12:56:04.000Z,100013
2018-10-11T12:57:04.000Z,100017
2018-10-11T12:59:04.000Z,100013
2018-10-11T13:00:49.000Z,100012
2018-10-11T13:02:04.000Z,100013
2018-10-11T13:03:04.000Z,100013
2018-10-11T13:04:49.000Z,100007
2018-10-11T13:06:04.000Z,100014
2018-10-11T13:07:04.000Z,100013
2018-10-11T13:08:04.000Z,100006
2018-10-11T13:09:04.000Z,100009
2018-10-11T13:11:04.000Z,100019
2018-10-11T13:12:04.000Z,100023
2018-10-11T13:13:04.000Z,100019
2018-10-11T13:14:04.000Z,100015
2018-10-11T13:16:04.000Z,100016
2018-10-11T13:18:04.000Z,100016
2018-10-11T13:20:04.000Z,100021
2018-10-11T13:21:04.000Z,100021
2018-10-11T13:23:04.000Z,100018
2018-10-11T13:24:49.000Z,100026
2018-10-11T13:26:04.000Z,100021
2018-10-11T13:28:04.000Z,100022
2018-10-11T13:29:04.000Z,100024
2018-10-11T13:30:04.000Z,100023
2018-10-11T13:32:04.000Z,100018
2018-10-11T13:33:49.000Z,100018
2018-10-11T13:35:04.000Z,100022
2018-10-11T13:37:04.000Z,100024
2018-10-11T13:39:04.000Z,100016
2018-10-11T13:40:04.000Z,100017
2018-10-11T13:42:04.000Z,100019
2018-10-11T13:43:04.000Z,100023
2018-10-11T13:45:04.000Z,100022
2018-10-11T13:46:04.000Z,100030
2018-10-11T13:48:04.000Z,100016
2018-10-11T13:50:04.000Z,100018
2018-10-11T13:52:04.000Z,100021
2018-10-11T13:54:04.000Z,100014
2018-10-11T13:56:05.000Z,100017
2018-10-11T13:58:05.000Z,100026
2018-10-11T13:59:50.000Z,100022
2018-10-11T14:01:05.000Z,100019
2018-10-11T14:03:05.000Z,100015
2018-10-11T14:05:05.000Z,100019
2018-10-11T14:07:05.000Z,100020
2018-10-11T14:09:05.000Z,100028
2018-10-11T14:11:05.000Z,100024
2018-10-11T14:12:05.000Z,100024
2018-10-11T14:14:05.000Z,100028
2018-10-11T14:16:05.000Z,100027
2018-10-11T14:17:05.000Z,100024
2018-10-11T14:19:05.000Z,100020
2018-10-11T14:20:50.000Z,100022
2018-10-11T14:22:05.000Z,100019
2018-10-11T14:23:34.000Z,100020
2018-10-11T14:25:05.000Z,100016
2018-10-11T14:27:05.000Z,100018
2018-10-11T14:29:05.000Z,100019
2018-10-11T14:31:05.000Z,100016
2018-10-11T14:32:05.000Z,100018
2018-10-11T14:34:05.000Z,100015
2018-10-11T14:35:05.000Z,100019
2018-10-11T14:37:05.000Z,100014
2018-10-11T14:39:05.000Z,100011
2018-10-11T14:41:05.000Z,100010
2018-10-11T14:42:50.000Z,100011
2018-10-11T14:44:05.000Z,100012
2018-10-11T14:45:05.000Z,100009
2018-10-11T14:46:05.000Z,100010
2018-10-11T14:47:50.000Z,100006
2018-10-11T14:49:05.000Z,100008
2018-10-11T14:50:50.000Z,99999
2018-10-11T14:52:05.000Z,100001
2018-10-11T14:53:05.000Z,100001
2018-10-11T14:54:50.000Z,100004
2018-10-11T14:56:05.000Z,100000
2018-10-11T14:58:04.000Z,99997
2018-10-11T15:00:04.000Z,99993
2018-10-11T15:02:04.000Z,99995
2018-10-11T15:04:04.000Z,100001
2018-10-11T15:05:04.000Z,100001
2018-10-11T15:06:49.000Z,99999
2018-10-11T15:08:04.000Z,100000
2018-10-11T15:10:04.000Z,100001
2018-10-11T15:11:34.000Z,100000
2018-10-11T15:13:04.000Z,99999
2018-10-11T15:15:04.000Z,100004
2018-10-11T15:16:49.000Z,100001
2018-10-11T15:18:04.000Z,100002
2018-10-11T15:19:04.000Z,100002
2018-10-11T15:21:04.000Z,100003
2018-10-11T15:23:04.000Z,100005
2018-10-11T15:24:49.000Z,100004
2018-10-11T15:26:04.000Z,100007
2018-10-11T15:28:04.000Z,100007
2018-10-11T15:30:04.000Z,100007
2018-10-11T15:31:04.000Z,100008
2018-10-11T15:33:04.000Z,100005
2018-10-11T15:34:34.000Z,100007
2018-10-11T15:36:04.000Z,100006
2018-10-11T15:38:04.000Z,100001
2018-10-11T15:40:04.000Z,100001
2018-10-11T15:41:04.000Z,99998
2018-10-11T15:43:04.000Z,99994
2018-10-11T15:45:04.000Z,99999
2018-10-11T15:46:04.000Z,100002
2018-10-11T15:47:04.000Z,100000
2018-10-11T15:49:04.000Z,99999
2018-10-11T15:50:04.000Z,99998
2018-10-11T15:52:04.000Z,99997
2018-10-11T15:53:04.000Z,100006
2018-10-11T15:55:04.000Z,100006
2018-10-11T15:56:49.000Z,100006
2018-10-11T15:58:04.000Z,100005
2018-10-11T16:00:04.000Z,100005
2018-10-11T16:01:04.000Z,100002
2018-10-11T16:03:04.000Z,100002
2018-10-11T16:04:04.000Z,100002
2018-10-11T16:06:04.000Z,99999
2018-10-11T16:08:04.000Z,100003
2018-10-11T16:10:04.000Z,100002
2018-10-11T16:11:04.000Z,100002
2018-10-11T16:13:04.000Z,100001
2018-10-11T16:15:04.000Z,100005
2018-10-11T16:16:04.000Z,100002
2018-10-11T16:18:04.000Z,100006
2018-10-11T16:19:04.000Z,100003
2018-10-11T16:21:04.000Z,100008
2018-10-11T16:22:04.000Z,100002
2018-10-11T16:23:04.000Z,100003
2018-10-11T16:25:04.000Z,100000
2018-10-11T16:26:04.000Z,100001
2018-10-11T16:28:04.000Z,99997
2018-10-11T16:30:04.000Z,100001
2018-10-11T16:32:04.000Z,100004
2018-10-11T16:34:04.000Z,100002
2018-10-11T16:35:04.000Z,100006
2018-10-11T16:36:49.000Z,100002
2018-10-11T16:38:04.000Z,100007
2018-10-11T16:39:04.000Z,100001
2018-10-11T16:40:04.000Z,100007
2018-10-11T16:42:04.000Z,100007
2018-10-11T16:43:04.000Z,100012
2018-10-11T16:44:04.000Z,100009
2018-10-11T16:46:04.000Z,100004
2018-10-11T16:47:49.000Z,100010
2018-10-11T16:49:04.000Z,100016
2018-10-11T16:51:04.000Z,100019
2018-10-11T16:53:04.000Z,100014
2018-10-11T16:55:04.000Z,100017
2018-10-11T16:57:04.000Z,100018
2018-10-11T16:58:04.000Z,100016
2018-10-11T16:59:34.000Z,100018
2018-10-11T17:01:04.000Z,100019
2018-10-11T17:03:04.000Z,100020
2018-10-11T17:05:04.000Z,100018
2018-10-11T17:07:05.000Z,100020
2018-10-11T17:08:05.000Z,100016
2018-10-11T17:10:05.000Z,100021
2018-10-11T17:12:05.000Z,100025
2018-10-11T17:13:05.000Z,100025
2018-10-11T17:15:05.000Z,100025
2018-10-11T17:17:05.000Z,100025
2018-10-11T17:19:05.000Z,100024
2018-10-11T17:20:50.000Z,100032
2018-10-11T17:22:05.000Z,100042
2018-10-11T17:23:05.000Z,100036
2018-10-11T17:25:05.000Z,100034
2018-10-11T17:26:05.000Z,100034
2018-10-11T17:27:50.000Z,100037
2018-10-11T17:29:05.000Z,100038
2018-10-11T17:30:05.000Z,100039
2018-10-11T17:31:50.000Z,100037
2018-10-11T17:33:05.000Z,100046
2018-10-11T17:35:05.000Z,100053
2018-10-11T17:36:05.000Z,100051
2018-10-11T17:37:05.000Z,100052
2018-10-11T17:39:05.000Z,100053
2018-10-11T17:40:05.000Z,100059
2018-10-11T17:42:05.000Z,100061
2018-10-11T17:43:05.000Z,100069
2018-10-11T17:45:05.000Z,100067
2018-10-11T17:47:05.000Z,100063
2018-10-11T17:49:05.000Z,100066
2018-10-11T17:50:05.000Z,100058
2018-10-11T17:52:05.000Z,100065
2018-10-11T17:54:05.000Z,100071
2018-10-11T17:55:50.000Z,100077
2018-10-11T17:57:05.000Z,100074
2018-10-11T17:59:05.000Z,100073
2018-10-11T18:00:05.000Z,100075
2018-10-11T18:02:05.000Z,100077
2018-10-11T18:04:05.000Z,100078
2018-10-11T18:06:05.000Z,100081
2018-10-11T18:07:05.000Z,100078
2018-10-11T18:09:04.000Z,100078
2018-10-11T18:11:04.000Z,100078
2018-10-11T18:13:04.000Z,100074
2018-10-11T18:14:49.000Z,100081
2018-10-11T18:16:04.000Z,100089
2018-10-11T18:18:04.000Z,100094
2018-10-11T18:19:04.000Z,100099
2018-10-11T18:20:04.000Z,100100
2018-10-11T18:21:04.000Z,100096
2018-10-11T18:22:49.000Z,100100
2018-10-11T18:24:04.000Z,100104
2018-10-11T18:26:04.000Z,100110
2018-10-11T18:28:04.000Z,100102
2018-10-11T18:29:04.000Z,100100
2018-10-11T18:31:04.000Z,100102
2018-10-11T18:32:49.000Z,100104
2018-10-11T18:35:04.000Z,100096
2018-10-11T18:37:04.000Z,100103
2018-10-11T18:39:04.000Z,100105
2018-10-11T18:40:04.000Z,100106
2018-10-11T18:41:04.000Z,100109
2018-10-11T18:43:04.000Z,100111
2018-10-11T18:44:49.000Z,100114
2018-10-11T18:46:04.000Z,100108
2018-10-11T18:47:49.000Z,100118
2018-10-11T18:49:04.000Z,100111
2018-10-11T18:51:04.000Z,100112
2018-10-11T18:52:04.000Z,100117
2018-10-11T18:53:04.000Z,100115
2018-10-11T18:55:04.000Z,100113
2018-10-11T18:56:04.000Z,100115
2018-10-11T18:57:04.000Z,100116
2018-10-11T18:59:04.000Z,100114
2018-10-11T19:01:04.000Z,100116
2018-10-11T19:02:04.000Z,100117
2018-10-11T19:04:04.000Z,100115
2018-10-11T19:06:04.000Z,100118
2018-10-11T19:07:04.000Z,100121
2018-10-11T19:09:04.000Z,100118
2018-10-11T19:10:49.000Z,100119
2018-10-11T19:12:04.000Z,100119
2018-10-11T19:13:05.000Z,100122
2018-10-11T19:15:05.000Z,100122
2018-10-11T19:16:05.000Z,100128
2018-10-11T19:18:05.000Z,100121
2018-10-11T19:19:05.000Z,100118
2018-10-11T19:21:05.000Z,100121
2018-10-11T19:22:49.000Z,100115
2018-10-11T19:24:05.000Z,100120
2018-10-11T19:25:05.000Z,100113
2018-10-11T19:27:05.000Z,100120
2018-10-11T19:28:05.000Z,100120
2018-10-11T19:29:49.000Z,100116
2018-10-11T19:31:05.000Z,100111
2018-10-11T19:32:34.000Z,100116
2018-10-11T19:34:05.000Z,100110
2018-10-11T19:35:05.000Z,100115
2018-10-11T19:36:05.000Z,100116
2018-10-11T19:38:05.000Z,100115
2018-10-11T19:40:05.000Z,100126
2018-10-11T19:41:49.000Z,100124
2018-10-11T19:43:05.000Z,100127
2018-10-11T19:45:05.000Z,100133
2018-10-11T19:46:05.000Z,100131
2018-10-11T19:47:05.000Z,100133
2018-10-11T19:49:05.000Z,100134
2018-10-11T19:51:05.000Z,100129
2018-10-11T19:52:49.000Z,100129
2018-10-11T19:54:05.000Z,100130
2018-10-11T19:55:05.000Z,100137
2018-10-11T19:56:05.000Z,100134
2018-10-11T19:57:05.000Z,100135
2018-10-11T19:59:05.000Z,100138
2018-10-11T20:01:05.000Z,100131
2018-10-11T20:03:05.000Z,100131
2018-10-11T20:04:05.000Z,100132
2018-10-11T20:06:05.000Z,100131
2018-10-11T20:08:05.000Z,100129
2018-10-11T20:09:05.000Z,100129
2018-10-11T20:10:05.000Z,100132
2018-10-11T20:12:05.000Z,100127
2018-10-11T20:13:05.000Z,100132
2018-10-11T20:15:05.000Z,100133
2018-10-11T20:17:04.000Z,100136
2018-10-11T20:19:04.000Z,100136
2018-10-11T20:20:04.000Z,100136
2018-10-11T20:21:04.000Z,100135
2018-10-11T20:22:34.000Z,100134
2018-10-11T20:24:04.000Z,100137
2018-10-11T20:25:04.000Z,100143
2018-10-11T20:26:49.000Z,100143
2018-10-11T20:28:04.000Z,100136